Accueil
METAR-TAF:

METAR-TAF

Aéroports :

Rostock, Allemagne

latitude: 53-55N, longitude: 012-17E, altitude: 40 m

Observation

Le bulletin a été fait il y a 41 minutes, à 12:20 UTC
Vent 10 kt de est/nord-est
Température 22°C
Humidité 33%
Pression 1025 hPa
Visibilité 10 km ou plus
Quelques nuages à une hauteur de 6000 ft

METAR: ETNL 011220Z 07010KT 9999 FEW060 22/05 Q1025 BLU+

Heure: 15:01 (13:01 UTC)

Prévision

Le bulletin a été fait il y a 3 heures et 1 minutes, à 10:00 UTC
Prévision valable du 01 à 11 UTC au 01 à 23 UTC
Vent 12 kt de est/nord-est avec des rafales jusqu'à 22 kt
Visibilité 10 km ou plus
Quelques nuages à une hauteur de 30000 ft

TAF: ETNL 011000Z 0111/0123 06012G22KT 9999 NSW FEW300 BY ETGL

Observations et prévisions météorologiques de plus de 4000 aéroports (messages METAR et TAF).

Les stations disponibles sont représentées par des disques jaunes et rouges sur la carte.

Passer la souris dessus pour voir le nom de la station.

Cliquer dessus pour voir les observations et prévisions météorologiques.

Pour changer de carte: cliquez sur les boutons verts avec une croix noire pour zoomer, sur le bouton vert avec un tiret pour effectuer un zoom arrière, ou sur les flèches vertes pour les cartes adjacentes.


METAR-TAF: